Terminal Aerodrome Forecast
Issued by NWS

Home | Current Version | Previous Version | Graphics & Text | Print | Product List | Glossary On
Versions: 1 2 3 4 5 6 7 8 9 10 11 12
653
FTUS43 KBIS 151736
TAFJMS
TAF
KJMS 151736Z 1518/1618 23008KT P6SM SKC
     FM161200 27006KT P6SM FEW250
     FM161600 30008KT P6SM SCT250=

USA.gov is the U.S. government's official web portal to all federal, state and local government web resources and services.